createdAt,value
2023-03-21T00:01:56.570Z,9.20
2023-03-21T00:04:24.923Z,9.16
2023-03-21T00:06:51.484Z,9.13
2023-03-21T00:09:18.720Z,9.10
2023-03-21T00:11:45.735Z,9.08
2023-03-21T00:14:14.936Z,9.07
2023-03-21T00:16:41.873Z,9.05
2023-03-21T00:19:09.766Z,9.06
2023-03-21T00:21:49.123Z,9.15
2023-03-21T00:24:23.280Z,9.16
2023-03-21T00:26:50.541Z,9.22
2023-03-21T00:29:17.556Z,9.26
2023-03-21T00:31:44.069Z,9.29
2023-03-21T00:36:42.241Z,9.33
2023-03-21T00:39:09.726Z,9.37
2023-03-21T00:41:42.773Z,9.41
2023-03-21T00:44:13.719Z,9.44
2023-03-21T00:46:48.990Z,9.46
2023-03-21T00:49:21.077Z,9.46
2023-03-21T00:51:51.767Z,9.45
2023-03-21T00:54:18.536Z,9.45
2023-03-21T00:56:45.288Z,9.44
2023-03-21T00:59:11.710Z,9.42
2023-03-21T01:01:38.263Z,9.40
2023-03-21T01:04:07.423Z,9.35
2023-03-21T01:06:39.986Z,9.31
2023-03-21T01:09:13.077Z,9.25
2023-03-21T01:11:40.346Z,9.21
2023-03-21T01:14:21.494Z,9.18
2023-03-21T01:16:50.358Z,9.15
2023-03-21T01:19:25.529Z,9.15
2023-03-21T01:21:55.196Z,9.21
2023-03-21T01:24:22.235Z,9.25
2023-03-21T01:26:48.770Z,9.27
2023-03-21T01:29:15.327Z,9.30
2023-03-21T01:31:41.851Z,9.33
2023-03-21T01:34:08.298Z,9.33
2023-03-21T01:36:34.792Z,9.37
2023-03-21T01:39:01.225Z,9.38
2023-03-21T01:41:42.572Z,9.36
2023-03-21T01:44:17.278Z,9.35
2023-03-21T01:47:11.483Z,9.27
2023-03-21T01:49:46.062Z,9.24
2023-03-21T01:52:29.658Z,9.18
2023-03-21T01:55:03.854Z,9.14
2023-03-21T01:57:45.133Z,9.14
2023-03-21T02:00:15.665Z,9.12
2023-03-21T02:02:52.146Z,9.11
2023-03-21T02:05:22.443Z,9.10
2023-03-21T02:07:50.453Z,9.07
2023-03-21T02:10:17.031Z,9.04
2023-03-21T02:12:43.442Z,9.00
2023-03-21T02:15:11.087Z,8.99
2023-03-21T02:17:40.834Z,9.04
2023-03-21T02:20:11.677Z,9.06
2023-03-21T02:23:24.708Z,9.11
2023-03-21T02:26:14.293Z,9.16
2023-03-21T02:28:51.971Z,9.23
2023-03-21T02:31:40.700Z,9.20
2023-03-21T02:34:40.592Z,9.16
2023-03-21T02:37:38.809Z,9.16
2023-03-21T02:40:27.104Z,9.17
2023-03-21T02:43:22.626Z,9.17
2023-03-21T02:46:08.715Z,9.16
2023-03-21T02:48:50.220Z,9.14
2023-03-21T02:51:21.574Z,9.11
2023-03-21T02:54:24.576Z,9.05
2023-03-21T02:56:46.173Z,8.99
2023-03-21T02:59:14.621Z,8.95
2023-03-21T03:01:41.100Z,8.91
2023-03-21T03:04:29.571Z,8.88
2023-03-21T03:06:58.759Z,8.84
2023-03-21T03:09:49.038Z,8.83
2023-03-21T03:12:26.350Z,8.79
2023-03-21T03:15:17.818Z,8.75
2023-03-21T03:18:03.022Z,8.79
2023-03-21T03:20:52.664Z,8.83
2023-03-21T03:23:52.004Z,8.86
2023-03-21T03:26:41.366Z,8.90
2023-03-21T03:29:13.377Z,8.90
2023-03-21T03:31:45.366Z,8.88
2023-03-21T03:34:20.762Z,8.91
2023-03-21T03:36:56.286Z,8.92
2023-03-21T03:39:29.752Z,8.90
2023-03-21T03:42:15.553Z,8.85
2023-03-21T03:44:48.541Z,8.84
2023-03-21T03:47:33.688Z,8.83
2023-03-21T03:50:08.992Z,8.81
2023-03-21T03:52:53.632Z,8.81
2023-03-21T03:55:23.640Z,8.75
2023-03-21T03:57:50.404Z,8.70
2023-03-21T04:00:17.605Z,8.65
2023-03-21T04:02:45.571Z,8.62
2023-03-21T04:05:12.361Z,8.62
2023-03-21T04:07:39.295Z,8.68
2023-03-21T04:10:06.209Z,8.74
2023-03-21T04:12:32.629Z,8.80
2023-03-21T04:15:08.136Z,8.85
2023-03-21T04:17:38.296Z,8.89
2023-03-21T04:20:12.012Z,8.91
2023-03-21T04:22:41.980Z,8.91
2023-03-21T04:25:09.187Z,8.92
2023-03-21T04:27:35.670Z,8.90
2023-03-21T04:30:03.415Z,8.87
2023-03-21T04:32:34.019Z,8.83
2023-03-21T04:35:01.116Z,8.82
2023-03-21T04:37:27.983Z,8.80
2023-03-21T04:39:54.505Z,8.77
2023-03-21T04:42:21.143Z,8.73
2023-03-21T04:44:48.988Z,8.69
2023-03-21T04:47:16.595Z,8.66
2023-03-21T04:49:43.220Z,8.62
2023-03-21T04:52:09.714Z,8.60
2023-03-21T04:54:36.172Z,8.60
2023-03-21T04:57:02.911Z,8.59
2023-03-21T04:59:29.367Z,8.64
2023-03-21T05:01:56.918Z,8.66
2023-03-21T05:04:23.448Z,8.69
2023-03-21T05:06:50.027Z,8.73
2023-03-21T05:09:16.635Z,8.76
2023-03-21T05:11:44.052Z,8.74
2023-03-21T05:14:14.800Z,8.75
2023-03-21T05:17:04.215Z,8.71
2023-03-21T05:19:40.759Z,8.68
2023-03-21T05:22:10.294Z,8.67
2023-03-21T05:24:39.394Z,8.65
2023-03-21T05:27:05.912Z,8.66
2023-03-21T05:29:33.709Z,8.65
2023-03-21T05:32:01.443Z,8.64
2023-03-21T05:34:28.734Z,8.63
2023-03-21T05:36:55.734Z,8.62
2023-03-21T05:39:22.264Z,8.62
2023-03-21T05:41:48.723Z,8.65
2023-03-21T05:44:15.573Z,8.72
2023-03-21T05:46:43.379Z,8.77
2023-03-21T05:49:11.453Z,8.80
2023-03-21T05:51:38.002Z,8.83
2023-03-21T05:54:04.511Z,8.82
2023-03-21T05:56:31.028Z,8.84
2023-03-21T05:58:57.463Z,8.89
2023-03-21T06:01:24.100Z,8.94
2023-03-21T06:03:50.600Z,8.99
2023-03-21T06:06:17.063Z,9.00
2023-03-21T06:08:43.536Z,9.05
2023-03-21T06:11:20.742Z,9.10
2023-03-21T06:13:47.188Z,9.20
2023-03-21T06:16:13.699Z,9.26
2023-03-21T06:18:40.251Z,9.29
2023-03-21T06:21:07.012Z,9.35
2023-03-21T06:23:33.590Z,9.39
2023-03-21T06:26:00.301Z,9.45
2023-03-21T06:28:26.865Z,9.53
2023-03-21T06:30:53.336Z,9.64
2023-03-21T06:33:19.826Z,9.69
2023-03-21T06:35:51.970Z,9.73
2023-03-21T06:38:18.453Z,9.78
2023-03-21T06:40:48.636Z,9.85
2023-03-21T06:43:18.692Z,9.92
2023-03-21T06:45:46.171Z,10.03
2023-03-21T06:48:12.783Z,10.12
2023-03-21T06:50:39.477Z,10.26
2023-03-21T06:53:06.520Z,10.37
2023-03-21T06:55:32.980Z,10.44
2023-03-21T06:57:59.429Z,10.48
2023-03-21T07:00:26.213Z,10.64
2023-03-21T07:02:53.886Z,10.83
2023-03-21T07:05:20.687Z,11.15
2023-03-21T07:07:48.484Z,11.70
2023-03-21T07:10:15.020Z,12.01
2023-03-21T07:12:41.583Z,12.09
2023-03-21T07:15:09.315Z,12.08
2023-03-21T07:17:35.849Z,11.87
2023-03-21T07:20:04.177Z,11.66
2023-03-21T07:22:30.600Z,11.38
2023-03-21T07:25:04.754Z,11.39
2023-03-21T07:27:32.120Z,11.56
2023-03-21T07:29:58.699Z,11.68
2023-03-21T07:32:30.065Z,11.81
2023-03-21T07:34:56.789Z,11.91
2023-03-21T07:37:24.009Z,12.02
2023-03-21T07:39:51.458Z,12.10
2023-03-21T07:42:18.073Z,12.40
2023-03-21T07:44:44.613Z,12.47
2023-03-21T07:47:11.223Z,12.58
2023-03-21T07:49:37.910Z,12.53
2023-03-21T07:52:06.758Z,12.54
2023-03-21T07:54:33.692Z,12.71
2023-03-21T07:57:00.258Z,12.88
2023-03-21T07:59:26.881Z,12.93
2023-03-21T08:01:53.356Z,12.74
2023-03-21T08:04:19.970Z,12.74
2023-03-21T08:06:46.493Z,12.78
2023-03-21T08:09:13.035Z,12.54
2023-03-21T08:11:40.672Z,12.69
2023-03-21T08:14:07.326Z,13.09
2023-03-21T08:16:33.797Z,13.18
2023-03-21T08:19:00.612Z,13.30
2023-03-21T08:21:27.640Z,13.78
2023-03-21T08:23:54.187Z,14.20
2023-03-21T08:26:21.408Z,14.45
2023-03-21T08:28:47.871Z,14.45
2023-03-21T08:31:15.017Z,14.15
2023-03-21T08:33:41.531Z,14.18
2023-03-21T08:36:08.722Z,14.49
2023-03-21T08:38:35.964Z,14.54
2023-03-21T08:41:02.976Z,14.50
2023-03-21T08:43:29.861Z,14.91
2023-03-21T08:45:56.831Z,15.27
2023-03-21T08:48:23.405Z,15.45
2023-03-21T08:50:50.031Z,15.63
2023-03-21T08:53:16.504Z,15.90
2023-03-21T08:55:44.776Z,16.25
2023-03-21T08:58:11.344Z,16.47
2023-03-21T09:00:37.872Z,16.64
2023-03-21T09:03:04.966Z,16.90
2023-03-21T09:05:31.593Z,17.26
2023-03-21T09:07:58.114Z,17.25
2023-03-21T09:10:24.586Z,17.71
2023-03-21T09:12:52.910Z,18.13
2023-03-21T09:15:21.942Z,19.05
2023-03-21T09:17:52.851Z,20.15
2023-03-21T09:20:25.980Z,20.32
2023-03-21T09:22:53.802Z,21.82
2023-03-21T09:25:21.701Z,22.92
2023-03-21T09:27:48.366Z,22.88
2023-03-21T09:30:20.094Z,23.10
2023-03-21T09:32:48.693Z,22.86
2023-03-21T09:35:19.606Z,23.87
2023-03-21T09:37:47.312Z,22.32
2023-03-21T09:40:31.221Z,22.12
2023-03-21T09:43:08.110Z,22.06
2023-03-21T09:45:50.557Z,22.13
2023-03-21T09:48:37.621Z,21.63
2023-03-21T09:51:15.852Z,21.81
2023-03-21T09:53:44.925Z,22.07
2023-03-21T09:56:13.653Z,22.86
2023-03-21T09:58:46.704Z,22.40
2023-03-21T10:01:28.284Z,22.45
2023-03-21T10:03:56.740Z,22.36
2023-03-21T10:06:30.652Z,23.25
2023-03-21T10:09:09.263Z,22.70
2023-03-21T10:11:44.344Z,21.66
2023-03-21T10:14:21.409Z,21.78
2023-03-21T10:16:52.478Z,21.07
2023-03-21T10:19:19.795Z,21.31
2023-03-21T10:22:01.348Z,21.63
2023-03-21T10:24:31.796Z,22.20
2023-03-21T10:26:59.039Z,22.25
2023-03-21T10:29:30.586Z,21.71
2023-03-21T10:31:57.225Z,21.94
2023-03-21T10:37:24.041Z,21.51
2023-03-21T10:39:53.747Z,21.56
2023-03-21T10:42:23.933Z,20.69
2023-03-21T10:44:53.335Z,20.49
2023-03-21T10:47:26.014Z,20.63
2023-03-21T10:50:09.949Z,20.69
2023-03-21T10:52:41.943Z,20.82
2023-03-21T10:55:19.575Z,20.67
2023-03-21T10:57:47.263Z,20.89
2023-03-21T11:00:25.669Z,20.59
2023-03-21T11:02:54.414Z,20.35
2023-03-21T11:05:33.026Z,20.22
2023-03-21T11:08:01.004Z,19.81
2023-03-21T11:10:38.023Z,19.54
2023-03-21T11:13:17.670Z,19.53
2023-03-21T11:16:03.702Z,19.38
2023-03-21T11:18:33.319Z,19.32
2023-03-21T11:21:08.922Z,19.57
2023-03-21T11:23:40.036Z,19.28
2023-03-21T11:26:12.055Z,19.30
2023-03-21T11:28:41.483Z,19.00
2023-03-21T11:31:09.465Z,19.37
2023-03-21T11:33:45.990Z,19.44
2023-03-21T11:36:18.240Z,19.22
2023-03-21T11:38:49.905Z,19.13
2023-03-21T11:41:40.053Z,18.61
2023-03-21T11:44:07.043Z,18.18
2023-03-21T11:46:41.042Z,17.98
2023-03-21T11:49:09.557Z,18.14
2023-03-21T11:51:53.002Z,18.03
2023-03-21T11:54:35.271Z,17.84
2023-03-21T11:57:37.221Z,17.41
2023-03-21T12:00:22.580Z,17.56
2023-03-21T12:03:21.917Z,17.52
2023-03-21T12:05:56.205Z,17.43
2023-03-21T12:08:38.018Z,17.58
2023-03-21T12:11:37.736Z,17.56
2023-03-21T12:14:31.033Z,17.36
2023-03-21T12:17:06.739Z,17.11
2023-03-21T12:19:50.955Z,17.26
2023-03-21T12:22:47.360Z,17.31
2023-03-21T12:25:30.539Z,17.00
2023-03-21T12:28:32.711Z,16.71
2023-03-21T12:31:18.033Z,16.56
2023-03-21T12:33:44.557Z,16.52
2023-03-21T12:36:27.160Z,16.48
2023-03-21T12:39:18.593Z,16.31
2023-03-21T12:41:57.078Z,16.04
2023-03-21T12:44:29.200Z,16.06
2023-03-21T12:47:01.354Z,16.16
2023-03-21T12:49:36.662Z,16.35
2023-03-21T12:52:11.821Z,16.48
2023-03-21T12:54:42.772Z,16.69
2023-03-21T12:57:15.537Z,17.15
2023-03-21T12:59:50.397Z,17.72
2023-03-21T13:02:36.785Z,18.14
2023-03-21T13:05:10.836Z,18.66
2023-03-21T13:07:43.480Z,19.09
2023-03-21T13:10:16.918Z,19.49
2023-03-21T13:12:51.191Z,20.34
2023-03-21T13:15:39.517Z,20.95
2023-03-21T13:18:53.803Z,21.38
2023-03-21T13:21:41.718Z,21.01
2023-03-21T13:24:24.873Z,20.68
2023-03-21T13:27:28.465Z,20.24
2023-03-21T13:30:00.454Z,19.40
2023-03-21T13:32:31.947Z,18.95
2023-03-21T13:35:01.503Z,18.67
2023-03-21T13:37:35.092Z,18.41
2023-03-21T13:40:12.125Z,18.40
2023-03-21T13:42:46.041Z,18.43
2023-03-21T13:45:31.280Z,18.45
2023-03-21T13:48:00.885Z,18.18
2023-03-21T13:50:36.512Z,18.27
2023-03-21T13:53:14.992Z,18.37
2023-03-21T13:55:47.128Z,18.19
2023-03-21T13:58:37.884Z,18.05
2023-03-21T14:01:10.000Z,18.03
2023-03-21T14:03:36.493Z,17.82
2023-03-21T14:06:03.217Z,17.78
2023-03-21T14:08:37.135Z,17.80
2023-03-21T14:11:07.554Z,17.78
2023-03-21T14:13:38.044Z,17.93
2023-03-21T14:16:17.068Z,17.66
2023-03-21T14:18:54.127Z,17.54
2023-03-21T14:21:25.432Z,17.59
2023-03-21T14:24:07.671Z,17.71
2023-03-21T14:26:48.075Z,17.78
2023-03-21T14:29:31.708Z,17.94
2023-03-21T14:32:00.259Z,17.80
2023-03-21T14:34:29.566Z,17.75
2023-03-21T14:36:58.454Z,17.88
2023-03-21T14:39:29.782Z,17.92
2023-03-21T14:42:02.779Z,18.17
2023-03-21T14:44:54.876Z,18.26
2023-03-21T14:47:26.088Z,18.04
2023-03-21T14:49:53.578Z,18.04
2023-03-21T14:52:22.634Z,18.07
2023-03-21T14:54:49.902Z,17.76
2023-03-21T14:57:23.027Z,17.56
2023-03-21T14:59:53.278Z,17.25
2023-03-21T15:02:25.352Z,17.19
2023-03-21T15:04:55.571Z,17.12
2023-03-21T15:07:26.336Z,16.92
2023-03-21T15:09:58.117Z,16.71
2023-03-21T15:12:24.701Z,16.68
2023-03-21T15:14:51.645Z,16.52
2023-03-21T15:17:19.384Z,16.58
2023-03-21T15:19:45.921Z,16.39
2023-03-21T15:22:23.284Z,16.42
2023-03-21T15:24:54.308Z,16.26
2023-03-21T15:27:24.760Z,16.18
2023-03-21T15:29:56.811Z,16.19
2023-03-21T15:32:26.129Z,16.22
2023-03-21T15:34:56.404Z,16.10
2023-03-21T15:37:28.766Z,15.94
2023-03-21T15:40:09.537Z,15.93
2023-03-21T15:42:41.263Z,15.81
2023-03-21T15:45:32.496Z,15.78
2023-03-21T15:48:03.097Z,15.58
2023-03-21T15:50:39.448Z,15.60
2023-03-21T15:53:17.163Z,15.61
2023-03-21T15:55:52.149Z,15.70
2023-03-21T15:58:25.358Z,15.68
2023-03-21T16:00:55.658Z,15.58
2023-03-21T16:03:30.439Z,15.60
2023-03-21T16:06:15.423Z,15.53
2023-03-21T16:08:47.979Z,15.45
2023-03-21T16:11:27.074Z,15.35
2023-03-21T16:13:55.402Z,15.35
2023-03-21T16:16:27.733Z,15.35
2023-03-21T16:18:56.161Z,15.32
2023-03-21T16:21:28.677Z,15.27
2023-03-21T16:23:56.136Z,15.18
2023-03-21T16:26:25.861Z,15.10
2023-03-21T16:28:53.062Z,15.01
2023-03-21T16:31:22.261Z,14.87
2023-03-21T16:33:49.165Z,14.70
2023-03-21T16:36:19.361Z,14.57
2023-03-21T16:38:47.493Z,14.49
2023-03-21T16:41:14.630Z,14.43
2023-03-21T16:43:45.643Z,14.37
2023-03-21T16:46:13.327Z,14.31
2023-03-21T16:48:41.131Z,14.26
2023-03-21T16:51:13.197Z,14.19
2023-03-21T16:53:39.824Z,14.11
2023-03-21T16:56:06.539Z,14.03
2023-03-21T16:58:32.961Z,13.98
2023-03-21T17:00:59.542Z,13.93
2023-03-21T17:03:26.245Z,13.90
2023-03-21T17:05:52.757Z,13.87
2023-03-21T17:08:21.831Z,13.82
2023-03-21T17:10:48.343Z,13.76
2023-03-21T17:13:14.811Z,13.73
2023-03-21T17:15:42.175Z,13.70
2023-03-21T17:18:09.897Z,13.66
2023-03-21T17:20:38.325Z,13.58
2023-03-21T17:23:05.262Z,13.54
2023-03-21T17:25:31.856Z,13.53
2023-03-21T17:27:58.382Z,13.50
2023-03-21T17:30:33.367Z,13.45
2023-03-21T17:33:00.596Z,13.36
2023-03-21T17:35:27.790Z,13.34
2023-03-21T17:37:58.405Z,13.31
2023-03-21T17:40:28.423Z,13.25
2023-03-21T17:42:56.560Z,13.23
2023-03-21T17:45:23.234Z,13.20
2023-03-21T17:47:50.676Z,13.19
2023-03-21T17:50:21.411Z,13.18
2023-03-21T17:52:50.644Z,13.13
2023-03-21T17:55:21.077Z,13.10
2023-03-21T17:57:49.031Z,13.06
2023-03-21T18:00:22.891Z,13.00
2023-03-21T18:02:50.449Z,12.97
2023-03-21T18:05:17.052Z,12.99
2023-03-21T18:08:08.791Z,12.84
2023-03-21T18:10:31.856Z,12.75
2023-03-21T18:12:59.056Z,12.75
2023-03-21T18:15:30.153Z,12.74
2023-03-21T18:17:57.594Z,12.70
2023-03-21T18:20:44.548Z,12.69
2023-03-21T18:23:14.334Z,12.64
2023-03-21T18:25:41.904Z,12.59
2023-03-21T18:28:11.894Z,12.58
2023-03-21T18:30:56.928Z,12.57
2023-03-21T18:33:27.351Z,12.56
2023-03-21T18:35:58.764Z,12.53
2023-03-21T18:38:27.911Z,12.49
2023-03-21T18:40:55.124Z,12.43
2023-03-21T18:46:08.676Z,12.44
2023-03-21T18:48:35.649Z,12.45
2023-03-21T18:51:03.242Z,12.44
2023-03-21T18:53:29.930Z,12.45
2023-03-21T18:55:57.526Z,12.43
2023-03-21T18:58:25.285Z,12.43
2023-03-21T19:00:53.694Z,12.35
2023-03-21T19:03:34.328Z,12.16
2023-03-21T19:06:04.001Z,12.04
2023-03-21T19:08:31.318Z,11.98
2023-03-21T19:11:03.341Z,11.91
2023-03-21T19:13:32.975Z,11.89
2023-03-21T19:16:02.374Z,11.88
2023-03-21T19:18:50.302Z,11.91
2023-03-21T19:21:19.834Z,11.94
2023-03-21T19:26:33.154Z,11.97
2023-03-21T19:28:59.749Z,11.98
2023-03-21T19:31:26.808Z,11.98
2023-03-21T19:33:53.398Z,11.98
2023-03-21T19:36:22.752Z,11.97
2023-03-21T19:38:49.870Z,11.96
2023-03-21T19:41:16.999Z,11.93
2023-03-21T19:43:53.199Z,11.90
2023-03-21T19:46:24.554Z,11.89
2023-03-21T19:48:56.256Z,11.88
2023-03-21T19:51:30.244Z,11.85
2023-03-21T19:54:03.252Z,11.88
2023-03-21T19:56:31.600Z,11.90
2023-03-21T19:58:58.880Z,11.97
2023-03-21T20:01:26.245Z,11.97
2023-03-21T20:03:52.794Z,11.99
2023-03-21T20:06:19.926Z,11.93
2023-03-21T20:09:37.652Z,11.94
2023-03-21T20:11:33.611Z,11.85
2023-03-21T20:14:02.841Z,11.80
2023-03-21T20:16:34.713Z,11.76
2023-03-21T20:19:08.727Z,11.73
2023-03-21T20:21:46.192Z,11.67
2023-03-21T20:24:14.793Z,11.60
2023-03-21T20:26:41.266Z,11.56
2023-03-21T20:29:48.731Z,11.52
2023-03-21T20:31:54.653Z,11.45
2023-03-21T20:34:21.770Z,11.42
2023-03-21T20:36:49.079Z,11.37
2023-03-21T20:39:15.715Z,11.42
2023-03-21T20:41:42.262Z,11.44
2023-03-21T20:46:56.656Z,11.45
2023-03-21T20:49:24.345Z,11.43
2023-03-21T20:54:38.203Z,11.37
2023-03-21T20:57:05.234Z,11.33
2023-03-21T20:59:32.062Z,11.26
2023-03-21T21:01:58.812Z,11.25
2023-03-21T21:04:48.178Z,11.22
2023-03-21T21:07:20.338Z,11.13
2023-03-21T21:09:47.873Z,11.06
2023-03-21T21:12:16.436Z,11.00
2023-03-21T21:14:43.713Z,10.90
2023-03-21T21:17:28.377Z,10.83
2023-03-21T21:19:56.912Z,10.74
2023-03-21T21:22:23.438Z,10.67
2023-03-21T21:24:49.903Z,10.60
2023-03-21T21:27:16.430Z,10.52
2023-03-21T21:29:46.694Z,10.54
2023-03-21T21:32:16.813Z,10.51
2023-03-21T21:34:43.303Z,10.49
2023-03-21T21:37:09.810Z,10.46
2023-03-21T21:39:38.002Z,10.44
2023-03-21T21:42:05.463Z,10.40
2023-03-21T21:44:32.098Z,10.35
2023-03-21T21:46:58.744Z,10.29
2023-03-21T21:49:25.259Z,10.23
2023-03-21T21:51:51.866Z,10.13
2023-03-21T21:54:18.636Z,10.04
2023-03-21T21:56:48.508Z,9.98
2023-03-21T21:59:18.556Z,9.89
2023-03-21T22:01:46.652Z,9.74
2023-03-21T22:04:14.426Z,9.64
2023-03-21T22:06:42.295Z,9.59
2023-03-21T22:09:09.134Z,9.56
2023-03-21T22:11:36.173Z,9.51
2023-03-21T22:14:03.055Z,9.50
2023-03-21T22:16:29.581Z,9.47
2023-03-21T22:18:56.163Z,9.47
2023-03-21T22:21:22.726Z,9.41
2023-03-21T22:23:49.237Z,9.34
2023-03-21T22:26:16.150Z,9.25
2023-03-21T22:28:43.499Z,9.17
2023-03-21T22:31:12.909Z,9.08
2023-03-21T22:33:39.628Z,9.01
2023-03-21T22:36:06.725Z,8.93
2023-03-21T22:38:34.609Z,8.84
2023-03-21T22:41:05.318Z,8.76
2023-03-21T22:43:34.279Z,8.69
2023-03-21T22:46:05.019Z,8.62
2023-03-21T22:48:32.670Z,8.58
2023-03-21T22:51:00.008Z,8.59
2023-03-21T22:53:26.957Z,8.59
2023-03-21T22:55:53.934Z,8.64
2023-03-21T22:58:20.667Z,8.69
2023-03-21T23:00:47.806Z,8.75
2023-03-21T23:03:16.703Z,8.80
2023-03-21T23:05:44.712Z,8.85
2023-03-21T23:08:12.403Z,8.89
2023-03-21T23:10:39.806Z,8.90
2023-03-21T23:13:06.698Z,8.90
2023-03-21T23:15:33.121Z,8.91
2023-03-21T23:17:59.631Z,8.90
2023-03-21T23:20:26.224Z,8.90
2023-03-21T23:22:52.741Z,8.90
2023-03-21T23:25:20.649Z,8.90
2023-03-21T23:27:47.994Z,8.87
2023-03-21T23:30:14.692Z,8.84
2023-03-21T23:32:41.315Z,8.92
2023-03-21T23:35:08.452Z,8.98
2023-03-21T23:37:35.002Z,9.04
2023-03-21T23:40:01.477Z,9.09
2023-03-21T23:42:29.437Z,9.13
2023-03-21T23:44:56.042Z,9.16
2023-03-21T23:47:22.588Z,9.17
2023-03-21T23:49:50.160Z,9.16
2023-03-21T23:52:16.722Z,9.11
2023-03-21T23:54:43.664Z,9.08
2023-03-21T23:57:10.341Z,9.04
2023-03-21T23:59:36.824Z,8.97
